sensor_id;sensor_type;location;lat;lon;timestamp;P1;durP1;ratioP1;P2;durP2;ratioP2
22829;SDS011;11581;51.250;6.778;2023-04-26T00:00:23;4.38;;;1.60;;
22829;SDS011;11581;51.250;6.778;2023-04-26T00:02:49;6.28;;;1.73;;
22829;SDS011;11581;51.250;6.778;2023-04-26T00:05:17;3.85;;;1.80;;
22829;SDS011;11581;51.250;6.778;2023-04-26T00:07:43;3.55;;;1.50;;
22829;SDS011;11581;51.250;6.778;2023-04-26T00:10:10;6.55;;;1.83;;
22829;SDS011;11581;51.250;6.778;2023-04-26T00:12:37;4.82;;;1.70;;
22829;SDS011;11581;51.250;6.778;2023-04-26T00:15:05;3.33;;;1.33;;
22829;SDS011;11581;51.250;6.778;2023-04-26T00:17:32;3.72;;;1.45;;
22829;SDS011;11581;51.250;6.778;2023-04-26T00:19:59;6.95;;;1.88;;
22829;SDS011;11581;51.250;6.778;2023-04-26T00:22:25;6.97;;;2.13;;
22829;SDS011;11581;51.250;6.778;2023-04-26T00:24:52;5.50;;;1.85;;
22829;SDS011;11581;51.250;6.778;2023-04-26T00:27:18;5.03;;;2.03;;
22829;SDS011;11581;51.250;6.778;2023-04-26T00:29:45;4.13;;;1.88;;
22829;SDS011;11581;51.250;6.778;2023-04-26T00:32:11;4.28;;;1.70;;
22829;SDS011;11581;51.250;6.778;2023-04-26T00:34:38;6.30;;;1.98;;
22829;SDS011;11581;51.250;6.778;2023-04-26T00:37:05;7.18;;;2.45;;
22829;SDS011;11581;51.250;6.778;2023-04-26T00:39:31;3.80;;;1.90;;
22829;SDS011;11581;51.250;6.778;2023-04-26T00:41:58;7.03;;;2.40;;
22829;SDS011;11581;51.250;6.778;2023-04-26T00:44:24;4.65;;;1.75;;
22829;SDS011;11581;51.250;6.778;2023-04-26T00:46:51;4.63;;;1.80;;
22829;SDS011;11581;51.250;6.778;2023-04-26T00:49:19;11.07;;;2.28;;
22829;SDS011;11581;51.250;6.778;2023-04-26T00:51:48;6.47;;;2.05;;
22829;SDS011;11581;51.250;6.778;2023-04-26T00:54:16;4.65;;;1.80;;
22829;SDS011;11581;51.250;6.778;2023-04-26T00:56:45;8.13;;;2.08;;
22829;SDS011;11581;51.250;6.778;2023-04-26T00:59:12;7.50;;;2.20;;
22829;SDS011;11581;51.250;6.778;2023-04-26T01:01:38;5.43;;;1.85;;
22829;SDS011;11581;51.250;6.778;2023-04-26T01:04:06;4.63;;;1.80;;
22829;SDS011;11581;51.250;6.778;2023-04-26T01:06:33;5.72;;;2.50;;
22829;SDS011;11581;51.250;6.778;2023-04-26T01:09:03;7.25;;;2.03;;
22829;SDS011;11581;51.250;6.778;2023-04-26T01:11:31;4.28;;;1.88;;
22829;SDS011;11581;51.250;6.778;2023-04-26T01:13:59;5.68;;;2.10;;
22829;SDS011;11581;51.250;6.778;2023-04-26T01:16:27;7.45;;;2.53;;
22829;SDS011;11581;51.250;6.778;2023-04-26T01:18:55;4.30;;;1.50;;
22829;SDS011;11581;51.250;6.778;2023-04-26T01:21:22;5.13;;;2.03;;
22829;SDS011;11581;51.250;6.778;2023-04-26T01:23:50;11.25;;;2.00;;
22829;SDS011;11581;51.250;6.778;2023-04-26T01:26:18;7.80;;;1.98;;
22829;SDS011;11581;51.250;6.778;2023-04-26T01:28:45;5.90;;;1.83;;
22829;SDS011;11581;51.250;6.778;2023-04-26T01:31:13;3.78;;;2.17;;
22829;SDS011;11581;51.250;6.778;2023-04-26T01:33:40;11.82;;;2.50;;
22829;SDS011;11581;51.250;6.778;2023-04-26T01:36:07;7.82;;;2.30;;
22829;SDS011;11581;51.250;6.778;2023-04-26T01:38:36;4.30;;;2.17;;
22829;SDS011;11581;51.250;6.778;2023-04-26T01:41:03;6.20;;;2.40;;
22829;SDS011;11581;51.250;6.778;2023-04-26T01:43:30;7.85;;;2.20;;
22829;SDS011;11581;51.250;6.778;2023-04-26T01:45:57;8.63;;;2.50;;
22829;SDS011;11581;51.250;6.778;2023-04-26T01:48:29;7.32;;;2.67;;
22829;SDS011;11581;51.250;6.778;2023-04-26T01:50:59;4.90;;;2.25;;
22829;SDS011;11581;51.250;6.778;2023-04-26T01:53:25;6.25;;;3.28;;
22829;SDS011;11581;51.250;6.778;2023-04-26T01:55:52;7.13;;;2.57;;
22829;SDS011;11581;51.250;6.778;2023-04-26T01:58:19;7.68;;;2.92;;
22829;SDS011;11581;51.250;6.778;2023-04-26T02:00:47;6.43;;;2.65;;
22829;SDS011;11581;51.250;6.778;2023-04-26T02:03:14;7.53;;;2.78;;
22829;SDS011;11581;51.250;6.778;2023-04-26T02:05:40;5.75;;;2.10;;
22829;SDS011;11581;51.250;6.778;2023-04-26T02:08:07;11.13;;;3.55;;
22829;SDS011;11581;51.250;6.778;2023-04-26T02:10:33;6.18;;;2.45;;
22829;SDS011;11581;51.250;6.778;2023-04-26T02:12:59;5.85;;;2.40;;
22829;SDS011;11581;51.250;6.778;2023-04-26T02:15:26;8.95;;;3.50;;
22829;SDS011;11581;51.250;6.778;2023-04-26T02:17:54;8.75;;;3.13;;
22829;SDS011;11581;51.250;6.778;2023-04-26T02:20:20;7.82;;;3.17;;
22829;SDS011;11581;51.250;6.778;2023-04-26T02:22:47;7.68;;;3.20;;
22829;SDS011;11581;51.250;6.778;2023-04-26T02:25:13;6.78;;;3.05;;
22829;SDS011;11581;51.250;6.778;2023-04-26T02:27:40;6.28;;;3.00;;
22829;SDS011;11581;51.250;6.778;2023-04-26T02:30:07;10.18;;;3.20;;
22829;SDS011;11581;51.250;6.778;2023-04-26T02:32:34;6.30;;;2.95;;
22829;SDS011;11581;51.250;6.778;2023-04-26T02:35:00;8.15;;;2.78;;
22829;SDS011;11581;51.250;6.778;2023-04-26T02:37:27;9.55;;;3.28;;
22829;SDS011;11581;51.250;6.778;2023-04-26T02:39:53;7.13;;;2.75;;
22829;SDS011;11581;51.250;6.778;2023-04-26T02:42:20;8.70;;;3.40;;
22829;SDS011;11581;51.250;6.778;2023-04-26T02:44:47;7.93;;;3.00;;
22829;SDS011;11581;51.250;6.778;2023-04-26T02:47:13;13.15;;;3.75;;
22829;SDS011;11581;51.250;6.778;2023-04-26T02:49:40;14.75;;;3.13;;
22829;SDS011;11581;51.250;6.778;2023-04-26T02:52:08;7.40;;;3.28;;
22829;SDS011;11581;51.250;6.778;2023-04-26T02:54:34;8.88;;;3.95;;
22829;SDS011;11581;51.250;6.778;2023-04-26T02:57:01;11.02;;;3.70;;
22829;SDS011;11581;51.250;6.778;2023-04-26T02:59:28;8.82;;;3.20;;
22829;SDS011;11581;51.250;6.778;2023-04-26T03:01:54;7.28;;;3.35;;
22829;SDS011;11581;51.250;6.778;2023-04-26T03:04:22;10.05;;;3.65;;
22829;SDS011;11581;51.250;6.778;2023-04-26T03:06:48;6.90;;;3.20;;
22829;SDS011;11581;51.250;6.778;2023-04-26T03:09:15;8.50;;;3.85;;
22829;SDS011;11581;51.250;6.778;2023-04-26T03:11:42;8.43;;;3.08;;
22829;SDS011;11581;51.250;6.778;2023-04-26T03:14:09;7.35;;;3.35;;
22829;SDS011;11581;51.250;6.778;2023-04-26T03:16:42;7.80;;;3.97;;
22829;SDS011;11581;51.250;6.778;2023-04-26T03:19:09;6.72;;;4.07;;
22829;SDS011;11581;51.250;6.778;2023-04-26T03:21:37;8.75;;;3.72;;
22829;SDS011;11581;51.250;6.778;2023-04-26T03:24:04;9.02;;;4.22;;
22829;SDS011;11581;51.250;6.778;2023-04-26T03:26:31;10.25;;;4.20;;
22829;SDS011;11581;51.250;6.778;2023-04-26T03:28:58;6.15;;;3.30;;
22829;SDS011;11581;51.250;6.778;2023-04-26T03:31:24;12.07;;;3.42;;
22829;SDS011;11581;51.250;6.778;2023-04-26T03:33:51;10.77;;;3.92;;
22829;SDS011;11581;51.250;6.778;2023-04-26T03:36:18;7.13;;;3.65;;
22829;SDS011;11581;51.250;6.778;2023-04-26T03:38:44;9.82;;;4.55;;
22829;SDS011;11581;51.250;6.778;2023-04-26T03:41:12;8.02;;;3.85;;
22829;SDS011;11581;51.250;6.778;2023-04-26T03:43:38;7.97;;;4.03;;
22829;SDS011;11581;51.250;6.778;2023-04-26T03:46:05;8.23;;;3.97;;
22829;SDS011;11581;51.250;6.778;2023-04-26T03:48:31;6.10;;;3.50;;
22829;SDS011;11581;51.250;6.778;2023-04-26T03:50:58;8.00;;;3.63;;
22829;SDS011;11581;51.250;6.778;2023-04-26T03:53:26;7.43;;;4.03;;
22829;SDS011;11581;51.250;6.778;2023-04-26T03:55:52;6.75;;;4.03;;
22829;SDS011;11581;51.250;6.778;2023-04-26T03:58:19;10.73;;;4.57;;
22829;SDS011;11581;51.250;6.778;2023-04-26T04:00:46;8.98;;;4.40;;
22829;SDS011;11581;51.250;6.778;2023-04-26T04:03:12;11.13;;;4.95;;
22829;SDS011;11581;51.250;6.778;2023-04-26T04:05:39;12.02;;;4.22;;
22829;SDS011;11581;51.250;6.778;2023-04-26T04:08:06;8.05;;;4.00;;
22829;SDS011;11581;51.250;6.778;2023-04-26T04:10:33;9.43;;;4.70;;
22829;SDS011;11581;51.250;6.778;2023-04-26T04:13:00;9.55;;;4.50;;
22829;SDS011;11581;51.250;6.778;2023-04-26T04:15:28;13.15;;;5.72;;
22829;SDS011;11581;51.250;6.778;2023-04-26T04:17:54;7.45;;;4.72;;
22829;SDS011;11581;51.250;6.778;2023-04-26T04:20:20;7.50;;;4.25;;
22829;SDS011;11581;51.250;6.778;2023-04-26T04:22:47;8.13;;;4.07;;
22829;SDS011;11581;51.250;6.778;2023-04-26T04:25:14;7.55;;;4.70;;
22829;SDS011;11581;51.250;6.778;2023-04-26T04:27:41;9.15;;;4.60;;
22829;SDS011;11581;51.250;6.778;2023-04-26T04:30:08;7.38;;;4.63;;
22829;SDS011;11581;51.250;6.778;2023-04-26T04:32:35;11.50;;;4.35;;
22829;SDS011;11581;51.250;6.778;2023-04-26T04:35:03;7.03;;;4.20;;
22829;SDS011;11581;51.250;6.778;2023-04-26T04:37:30;8.02;;;4.68;;
22829;SDS011;11581;51.250;6.778;2023-04-26T04:39:58;12.15;;;5.00;;
22829;SDS011;11581;51.250;6.778;2023-04-26T04:42:24;8.73;;;5.05;;
22829;SDS011;11581;51.250;6.778;2023-04-26T04:44:53;10.10;;;5.05;;
22829;SDS011;11581;51.250;6.778;2023-04-26T04:47:21;10.40;;;5.07;;
22829;SDS011;11581;51.250;6.778;2023-04-26T04:49:48;8.68;;;4.93;;
22829;SDS011;11581;51.250;6.778;2023-04-26T04:52:15;11.02;;;5.28;;
22829;SDS011;11581;51.250;6.778;2023-04-26T04:54:41;12.10;;;5.70;;
22829;SDS011;11581;51.250;6.778;2023-04-26T04:57:08;11.52;;;4.68;;
22829;SDS011;11581;51.250;6.778;2023-04-26T04:59:35;8.98;;;5.43;;
22829;SDS011;11581;51.250;6.778;2023-04-26T05:02:02;8.02;;;5.22;;
22829;SDS011;11581;51.250;6.778;2023-04-26T05:04:29;9.95;;;5.70;;
22829;SDS011;11581;51.250;6.778;2023-04-26T05:06:58;9.07;;;6.07;;
22829;SDS011;11581;51.250;6.778;2023-04-26T05:09:26;9.32;;;5.63;;
22829;SDS011;11581;51.250;6.778;2023-04-26T05:11:53;8.23;;;5.80;;
22829;SDS011;11581;51.250;6.778;2023-04-26T05:14:19;12.02;;;5.88;;
22829;SDS011;11581;51.250;6.778;2023-04-26T05:16:46;10.98;;;5.57;;
22829;SDS011;11581;51.250;6.778;2023-04-26T05:19:12;10.43;;;5.57;;
22829;SDS011;11581;51.250;6.778;2023-04-26T05:21:39;10.35;;;5.60;;
22829;SDS011;11581;51.250;6.778;2023-04-26T05:24:06;10.52;;;6.00;;
22829;SDS011;11581;51.250;6.778;2023-04-26T05:26:33;9.77;;;5.75;;
22829;SDS011;11581;51.250;6.778;2023-04-26T05:29:29;11.15;;;5.80;;
22829;SDS011;11581;51.250;6.778;2023-04-26T05:32:01;13.35;;;5.82;;
22829;SDS011;11581;51.250;6.778;2023-04-26T05:34:51;11.55;;;6.18;;
22829;SDS011;11581;51.250;6.778;2023-04-26T05:37:18;8.75;;;5.13;;
22829;SDS011;11581;51.250;6.778;2023-04-26T05:39:44;9.77;;;5.22;;
22829;SDS011;11581;51.250;6.778;2023-04-26T05:42:10;8.50;;;5.35;;
22829;SDS011;11581;51.250;6.778;2023-04-26T05:44:38;13.25;;;5.53;;
22829;SDS011;11581;51.250;6.778;2023-04-26T05:47:04;11.32;;;5.55;;
22829;SDS011;11581;51.250;6.778;2023-04-26T05:49:31;10.40;;;5.45;;
22829;SDS011;11581;51.250;6.778;2023-04-26T05:51:58;10.23;;;6.00;;
22829;SDS011;11581;51.250;6.778;2023-04-26T05:54:26;9.55;;;5.40;;
22829;SDS011;11581;51.250;6.778;2023-04-26T05:56:52;9.45;;;5.70;;
22829;SDS011;11581;51.250;6.778;2023-04-26T05:59:19;8.48;;;5.03;;
22829;SDS011;11581;51.250;6.778;2023-04-26T06:01:45;7.78;;;4.93;;
22829;SDS011;11581;51.250;6.778;2023-04-26T06:04:12;8.77;;;5.50;;
22829;SDS011;11581;51.250;6.778;2023-04-26T06:06:47;8.82;;;5.20;;
22829;SDS011;11581;51.250;6.778;2023-04-26T06:09:14;9.55;;;5.32;;
22829;SDS011;11581;51.250;6.778;2023-04-26T06:11:40;11.13;;;4.68;;
22829;SDS011;11581;51.250;6.778;2023-04-26T06:14:07;8.20;;;4.57;;
22829;SDS011;11581;51.250;6.778;2023-04-26T06:16:33;9.55;;;4.15;;
22829;SDS011;11581;51.250;6.778;2023-04-26T06:19:00;8.80;;;4.70;;
22829;SDS011;11581;51.250;6.778;2023-04-26T06:21:27;8.50;;;4.55;;
22829;SDS011;11581;51.250;6.778;2023-04-26T06:23:54;9.63;;;4.78;;
22829;SDS011;11581;51.250;6.778;2023-04-26T06:26:24;11.38;;;4.15;;
22829;SDS011;11581;51.250;6.778;2023-04-26T06:28:50;10.35;;;4.00;;
22829;SDS011;11581;51.250;6.778;2023-04-26T06:31:17;19.23;;;4.00;;
22829;SDS011;11581;51.250;6.778;2023-04-26T06:33:46;10.38;;;3.80;;
22829;SDS011;11581;51.250;6.778;2023-04-26T06:36:12;9.15;;;4.10;;
22829;SDS011;11581;51.250;6.778;2023-04-26T06:38:40;6.30;;;3.00;;
22829;SDS011;11581;51.250;6.778;2023-04-26T06:41:06;7.97;;;3.28;;
22829;SDS011;11581;51.250;6.778;2023-04-26T06:43:33;11.40;;;3.35;;
22829;SDS011;11581;51.250;6.778;2023-04-26T06:46:16;11.23;;;3.95;;
22829;SDS011;11581;51.250;6.778;2023-04-26T06:48:48;8.07;;;3.30;;
22829;SDS011;11581;51.250;6.778;2023-04-26T06:51:23;8.90;;;3.70;;
22829;SDS011;11581;51.250;6.778;2023-04-26T06:53:50;6.85;;;2.85;;
22829;SDS011;11581;51.250;6.778;2023-04-26T06:56:17;8.32;;;3.00;;
22829;SDS011;11581;51.250;6.778;2023-04-26T06:58:59;7.40;;;2.90;;
22829;SDS011;11581;51.250;6.778;2023-04-26T07:01:27;10.67;;;3.60;;
22829;SDS011;11581;51.250;6.778;2023-04-26T07:03:57;9.35;;;3.63;;
22829;SDS011;11581;51.250;6.778;2023-04-26T07:06:28;7.07;;;3.20;;
22829;SDS011;11581;51.250;6.778;2023-04-26T07:08:59;6.28;;;3.33;;
22829;SDS011;11581;51.250;6.778;2023-04-26T07:11:26;9.85;;;2.97;;
22829;SDS011;11581;51.250;6.778;2023-04-26T07:13:53;7.38;;;2.75;;
22829;SDS011;11581;51.250;6.778;2023-04-26T07:16:20;6.97;;;2.60;;
22829;SDS011;11581;51.250;6.778;2023-04-26T07:18:46;4.97;;;2.25;;
22829;SDS011;11581;51.250;6.778;2023-04-26T07:21:13;7.22;;;2.58;;
22829;SDS011;11581;51.250;6.778;2023-04-26T07:23:40;10.82;;;3.00;;
22829;SDS011;11581;51.250;6.778;2023-04-26T07:26:09;7.35;;;2.58;;
22829;SDS011;11581;51.250;6.778;2023-04-26T07:28:35;6.13;;;2.42;;
22829;SDS011;11581;51.250;6.778;2023-04-26T07:31:02;5.47;;;2.70;;
22829;SDS011;11581;51.250;6.778;2023-04-26T07:33:28;4.80;;;2.25;;
22829;SDS011;11581;51.250;6.778;2023-04-26T07:35:56;10.80;;;2.58;;
22829;SDS011;11581;51.250;6.778;2023-04-26T07:38:25;5.07;;;2.00;;
22829;SDS011;11581;51.250;6.778;2023-04-26T07:40:52;6.45;;;2.28;;
22829;SDS011;11581;51.250;6.778;2023-04-26T07:43:19;7.53;;;2.00;;
22829;SDS011;11581;51.250;6.778;2023-04-26T07:45:46;13.25;;;1.75;;
22829;SDS011;11581;51.250;6.778;2023-04-26T07:48:12;6.13;;;1.67;;
22829;SDS011;11581;51.250;6.778;2023-04-26T07:50:39;3.28;;;1.13;;
22829;SDS011;11581;51.250;6.778;2023-04-26T07:53:05;6.63;;;1.48;;
22829;SDS011;11581;51.250;6.778;2023-04-26T07:55:32;3.65;;;1.00;;
22829;SDS011;11581;51.250;6.778;2023-04-26T07:57:58;3.38;;;1.27;;
22829;SDS011;11581;51.250;6.778;2023-04-26T08:00:25;4.95;;;1.55;;
22829;SDS011;11581;51.250;6.778;2023-04-26T08:02:51;8.05;;;1.35;;
22829;SDS011;11581;51.250;6.778;2023-04-26T08:05:18;6.82;;;1.92;;
22829;SDS011;11581;51.250;6.778;2023-04-26T08:07:44;5.38;;;1.73;;
22829;SDS011;11581;51.250;6.778;2023-04-26T08:10:11;4.30;;;1.70;;
22829;SDS011;11581;51.250;6.778;2023-04-26T08:12:37;4.47;;;1.80;;
22829;SDS011;11581;51.250;6.778;2023-04-26T08:15:05;7.15;;;2.53;;
22829;SDS011;11581;51.250;6.778;2023-04-26T08:17:32;8.23;;;2.70;;
22829;SDS011;11581;51.250;6.778;2023-04-26T08:19:58;5.78;;;2.22;;
22829;SDS011;11581;51.250;6.778;2023-04-26T08:22:25;9.15;;;3.00;;
22829;SDS011;11581;51.250;6.778;2023-04-26T08:24:53;5.45;;;2.17;;
22829;SDS011;11581;51.250;6.778;2023-04-26T08:27:21;7.10;;;1.92;;
22829;SDS011;11581;51.250;6.778;2023-04-26T08:29:47;10.65;;;2.72;;
22829;SDS011;11581;51.250;6.778;2023-04-26T08:32:14;8.73;;;2.85;;
22829;SDS011;11581;51.250;6.778;2023-04-26T08:34:40;5.88;;;2.20;;
22829;SDS011;11581;51.250;6.778;2023-04-26T08:37:07;5.80;;;2.28;;
22829;SDS011;11581;51.250;6.778;2023-04-26T08:39:33;7.22;;;2.20;;
22829;SDS011;11581;51.250;6.778;2023-04-26T08:42:12;4.38;;;1.80;;
22829;SDS011;11581;51.250;6.778;2023-04-26T08:44:41;4.75;;;1.48;;
22829;SDS011;11581;51.250;6.778;2023-04-26T08:47:12;5.47;;;1.60;;
22829;SDS011;11581;51.250;6.778;2023-04-26T08:52:14;3.83;;;1.08;;
22829;SDS011;11581;51.250;6.778;2023-04-26T08:54:41;5.45;;;1.88;;
22829;SDS011;11581;51.250;6.778;2023-04-26T08:57:08;4.60;;;1.10;;
22829;SDS011;11581;51.250;6.778;2023-04-26T08:59:35;5.47;;;1.50;;
22829;SDS011;11581;51.250;6.778;2023-04-26T09:02:03;4.72;;;1.33;;
22829;SDS011;11581;51.250;6.778;2023-04-26T09:04:31;6.20;;;1.63;;
22829;SDS011;11581;51.250;6.778;2023-04-26T09:07:01;5.70;;;1.83;;
22829;SDS011;11581;51.250;6.778;2023-04-26T09:09:33;4.63;;;1.17;;
22829;SDS011;11581;51.250;6.778;2023-04-26T09:12:01;6.32;;;1.52;;
22829;SDS011;11581;51.250;6.778;2023-04-26T09:14:28;3.58;;;1.27;;
22829;SDS011;11581;51.250;6.778;2023-04-26T09:16:55;4.55;;;1.50;;
22829;SDS011;11581;51.250;6.778;2023-04-26T09:22:07;4.00;;;1.35;;
22829;SDS011;11581;51.250;6.778;2023-04-26T09:24:50;10.00;;;1.70;;
22829;SDS011;11581;51.250;6.778;2023-04-26T09:27:17;4.35;;;1.52;;
22829;SDS011;11581;51.250;6.778;2023-04-26T09:29:57;6.00;;;1.73;;
22829;SDS011;11581;51.250;6.778;2023-04-26T09:35:22;7.03;;;1.10;;
22829;SDS011;11581;51.250;6.778;2023-04-26T09:38:00;6.80;;;1.67;;
22829;SDS011;11581;51.250;6.778;2023-04-26T09:40:35;2.65;;;0.85;;
22829;SDS011;11581;51.250;6.778;2023-04-26T09:43:05;2.63;;;1.08;;
22829;SDS011;11581;51.250;6.778;2023-04-26T09:45:41;4.38;;;1.15;;
22829;SDS011;11581;51.250;6.778;2023-04-26T09:53:30;8.80;;;2.08;;
22829;SDS011;11581;51.250;6.778;2023-04-26T10:01:22;2.97;;;1.40;;
22829;SDS011;11581;51.250;6.778;2023-04-26T10:03:48;7.88;;;1.75;;
22829;SDS011;11581;51.250;6.778;2023-04-26T10:06:15;7.32;;;1.50;;
22829;SDS011;11581;51.250;6.778;2023-04-26T10:08:42;2.95;;;1.00;;
22829;SDS011;11581;51.250;6.778;2023-04-26T10:11:10;4.20;;;1.00;;
22829;SDS011;11581;51.250;6.778;2023-04-26T10:13:36;3.67;;;1.40;;
22829;SDS011;11581;51.250;6.778;2023-04-26T10:16:04;5.93;;;1.50;;
22829;SDS011;11581;51.250;6.778;2023-04-26T10:18:31;7.15;;;1.58;;
22829;SDS011;11581;51.250;6.778;2023-04-26T10:21:06;4.78;;;1.50;;
22829;SDS011;11581;51.250;6.778;2023-04-26T10:24:00;5.55;;;1.40;;
22829;SDS011;11581;51.250;6.778;2023-04-26T10:29:13;4.60;;;1.83;;
22829;SDS011;11581;51.250;6.778;2023-04-26T10:34:29;4.90;;;1.23;;
22829;SDS011;11581;51.250;6.778;2023-04-26T10:37:10;3.60;;;1.30;;
22829;SDS011;11581;51.250;6.778;2023-04-26T10:39:42;5.50;;;1.73;;
22829;SDS011;11581;51.250;6.778;2023-04-26T10:42:20;5.28;;;1.50;;
22829;SDS011;11581;51.250;6.778;2023-04-26T10:44:58;5.07;;;1.60;;
22829;SDS011;11581;51.250;6.778;2023-04-26T10:52:29;4.30;;;1.40;;
22829;SDS011;11581;51.250;6.778;2023-04-26T10:54:57;3.65;;;1.38;;
22829;SDS011;11581;51.250;6.778;2023-04-26T11:00:14;5.93;;;1.20;;
22829;SDS011;11581;51.250;6.778;2023-04-26T11:02:46;2.88;;;1.10;;
22829;SDS011;11581;51.250;6.778;2023-04-26T11:05:31;2.97;;;1.00;;
22829;SDS011;11581;51.250;6.778;2023-04-26T11:08:06;3.78;;;1.25;;
22829;SDS011;11581;51.250;6.778;2023-04-26T11:13:39;3.75;;;1.25;;
22829;SDS011;11581;51.250;6.778;2023-04-26T11:18:38;2.67;;;1.17;;
22829;SDS011;11581;51.250;6.778;2023-04-26T11:21:06;5.00;;;1.73;;
22829;SDS011;11581;51.250;6.778;2023-04-26T11:23:33;3.42;;;1.30;;
22829;SDS011;11581;51.250;6.778;2023-04-26T11:26:02;4.55;;;1.30;;
22829;SDS011;11581;51.250;6.778;2023-04-26T11:28:30;6.80;;;1.30;;
22829;SDS011;11581;51.250;6.778;2023-04-26T11:30:57;5.40;;;1.40;;
22829;SDS011;11581;51.250;6.778;2023-04-26T11:33:24;4.03;;;1.42;;
22829;SDS011;11581;51.250;6.778;2023-04-26T11:35:51;3.50;;;1.27;;
22829;SDS011;11581;51.250;6.778;2023-04-26T11:38:23;2.85;;;0.90;;
22829;SDS011;11581;51.250;6.778;2023-04-26T11:43:36;4.60;;;1.00;;
22829;SDS011;11581;51.250;6.778;2023-04-26T11:46:04;5.15;;;1.20;;
22829;SDS011;11581;51.250;6.778;2023-04-26T11:48:33;4.90;;;1.20;;
22829;SDS011;11581;51.250;6.778;2023-04-26T11:51:02;4.82;;;1.30;;
22829;SDS011;11581;51.250;6.778;2023-04-26T11:53:35;3.42;;;1.27;;
22829;SDS011;11581;51.250;6.778;2023-04-26T11:56:04;3.47;;;1.42;;
22829;SDS011;11581;51.250;6.778;2023-04-26T11:58:44;2.83;;;1.02;;
22829;SDS011;11581;51.250;6.778;2023-04-26T12:01:18;4.78;;;1.10;;
22829;SDS011;11581;51.250;6.778;2023-04-26T12:03:52;2.58;;;1.02;;
22829;SDS011;11581;51.250;6.778;2023-04-26T12:06:24;3.53;;;1.13;;
22829;SDS011;11581;51.250;6.778;2023-04-26T12:08:57;4.10;;;1.20;;
22829;SDS011;11581;51.250;6.778;2023-04-26T12:11:26;4.25;;;0.98;;
22829;SDS011;11581;51.250;6.778;2023-04-26T12:13:52;4.85;;;1.48;;
22829;SDS011;11581;51.250;6.778;2023-04-26T12:16:21;6.28;;;1.52;;
22829;SDS011;11581;51.250;6.778;2023-04-26T12:18:50;2.35;;;0.90;;
22829;SDS011;11581;51.250;6.778;2023-04-26T12:21:17;3.70;;;1.13;;
22829;SDS011;11581;51.250;6.778;2023-04-26T12:23:45;4.97;;;1.38;;
22829;SDS011;11581;51.250;6.778;2023-04-26T12:26:13;3.55;;;1.17;;
22829;SDS011;11581;51.250;6.778;2023-04-26T12:28:40;3.95;;;1.35;;
22829;SDS011;11581;51.250;6.778;2023-04-26T12:31:06;3.38;;;1.05;;
22829;SDS011;11581;51.250;6.778;2023-04-26T12:33:33;3.55;;;1.23;;
22829;SDS011;11581;51.250;6.778;2023-04-26T12:36:07;4.00;;;1.23;;
22829;SDS011;11581;51.250;6.778;2023-04-26T12:38:37;4.25;;;1.20;;
22829;SDS011;11581;51.250;6.778;2023-04-26T12:41:05;5.00;;;1.20;;
22829;SDS011;11581;51.250;6.778;2023-04-26T12:43:31;3.78;;;1.25;;
22829;SDS011;11581;51.250;6.778;2023-04-26T12:45:58;3.92;;;0.90;;
22829;SDS011;11581;51.250;6.778;2023-04-26T12:48:25;5.03;;;1.52;;
22829;SDS011;11581;51.250;6.778;2023-04-26T12:50:52;3.53;;;1.10;;
22829;SDS011;11581;51.250;6.778;2023-04-26T12:53:18;2.78;;;0.80;;
22829;SDS011;11581;51.250;6.778;2023-04-26T12:55:45;3.35;;;0.90;;
22829;SDS011;11581;51.250;6.778;2023-04-26T12:58:11;2.83;;;0.98;;
22829;SDS011;11581;51.250;6.778;2023-04-26T13:00:37;2.60;;;1.27;;
22829;SDS011;11581;51.250;6.778;2023-04-26T13:03:04;3.05;;;1.13;;
22829;SDS011;11581;51.250;6.778;2023-04-26T13:05:31;4.03;;;0.93;;
22829;SDS011;11581;51.250;6.778;2023-04-26T13:07:57;4.78;;;1.15;;
22829;SDS011;11581;51.250;6.778;2023-04-26T13:10:25;3.65;;;1.50;;
22829;SDS011;11581;51.250;6.778;2023-04-26T13:12:52;3.95;;;1.00;;
22829;SDS011;11581;51.250;6.778;2023-04-26T13:15:19;6.70;;;1.50;;
22829;SDS011;11581;51.250;6.778;2023-04-26T13:17:48;4.80;;;1.17;;
22829;SDS011;11581;51.250;6.778;2023-04-26T13:20:14;4.25;;;1.20;;
22829;SDS011;11581;51.250;6.778;2023-04-26T13:22:41;2.78;;;1.20;;
22829;SDS011;11581;51.250;6.778;2023-04-26T13:25:07;4.43;;;1.20;;
22829;SDS011;11581;51.250;6.778;2023-04-26T13:27:35;3.20;;;1.15;;
22829;SDS011;11581;51.250;6.778;2023-04-26T13:30:01;2.58;;;0.93;;
22829;SDS011;11581;51.250;6.778;2023-04-26T13:32:28;3.45;;;0.85;;
22829;SDS011;11581;51.250;6.778;2023-04-26T13:34:56;2.95;;;1.08;;
22829;SDS011;11581;51.250;6.778;2023-04-26T13:37:22;3.92;;;1.30;;
22829;SDS011;11581;51.250;6.778;2023-04-26T13:39:49;2.33;;;1.05;;
22829;SDS011;11581;51.250;6.778;2023-04-26T13:42:15;6.85;;;1.63;;
22829;SDS011;11581;51.250;6.778;2023-04-26T13:44:42;2.47;;;1.05;;
22829;SDS011;11581;51.250;6.778;2023-04-26T13:47:09;3.45;;;1.20;;
22829;SDS011;11581;51.250;6.778;2023-04-26T13:49:36;3.40;;;1.30;;
22829;SDS011;11581;51.250;6.778;2023-04-26T13:52:05;4.70;;;1.40;;
22829;SDS011;11581;51.250;6.778;2023-04-26T13:54:31;4.45;;;1.15;;
22829;SDS011;11581;51.250;6.778;2023-04-26T13:56:58;5.07;;;1.45;;
22829;SDS011;11581;51.250;6.778;2023-04-26T13:59:24;5.88;;;1.65;;
22829;SDS011;11581;51.250;6.778;2023-04-26T14:01:51;2.30;;;1.08;;
22829;SDS011;11581;51.250;6.778;2023-04-26T14:04:17;3.38;;;1.17;;
22829;SDS011;11581;51.250;6.778;2023-04-26T14:06:44;2.75;;;1.30;;
22829;SDS011;11581;51.250;6.778;2023-04-26T14:09:10;4.30;;;1.20;;
22829;SDS011;11581;51.250;6.778;2023-04-26T14:11:37;3.40;;;1.50;;
22829;SDS011;11581;51.250;6.778;2023-04-26T14:14:03;4.10;;;1.20;;
22829;SDS011;11581;51.250;6.778;2023-04-26T14:16:30;4.40;;;1.80;;
22829;SDS011;11581;51.250;6.778;2023-04-26T14:18:56;4.40;;;1.48;;
22829;SDS011;11581;51.250;6.778;2023-04-26T14:21:23;7.40;;;1.90;;
22829;SDS011;11581;51.250;6.778;2023-04-26T14:23:50;3.58;;;1.52;;
22829;SDS011;11581;51.250;6.778;2023-04-26T14:26:17;5.30;;;1.48;;
22829;SDS011;11581;51.250;6.778;2023-04-26T14:28:44;3.25;;;1.05;;
22829;SDS011;11581;51.250;6.778;2023-04-26T14:31:12;5.55;;;1.48;;
22829;SDS011;11581;51.250;6.778;2023-04-26T14:33:38;5.70;;;1.63;;
22829;SDS011;11581;51.250;6.778;2023-04-26T14:36:05;5.53;;;1.73;;
22829;SDS011;11581;51.250;6.778;2023-04-26T14:38:32;4.80;;;1.60;;
22829;SDS011;11581;51.250;6.778;2023-04-26T14:40:58;4.25;;;1.25;;
22829;SDS011;11581;51.250;6.778;2023-04-26T14:43:25;2.40;;;0.93;;
22829;SDS011;11581;51.250;6.778;2023-04-26T14:45:52;3.80;;;0.98;;
22829;SDS011;11581;51.250;6.778;2023-04-26T14:48:18;4.68;;;1.60;;
22829;SDS011;11581;51.250;6.778;2023-04-26T14:50:45;3.70;;;1.35;;
22829;SDS011;11581;51.250;6.778;2023-04-26T14:53:11;6.45;;;1.42;;
22829;SDS011;11581;51.250;6.778;2023-04-26T14:55:38;3.30;;;1.50;;
22829;SDS011;11581;51.250;6.778;2023-04-26T14:58:04;3.80;;;1.42;;
22829;SDS011;11581;51.250;6.778;2023-04-26T15:00:30;3.05;;;1.35;;
22829;SDS011;11581;51.250;6.778;2023-04-26T15:02:57;9.18;;;1.50;;
22829;SDS011;11581;51.250;6.778;2023-04-26T15:05:23;3.25;;;1.20;;
22829;SDS011;11581;51.250;6.778;2023-04-26T15:07:50;3.97;;;1.33;;
22829;SDS011;11581;51.250;6.778;2023-04-26T15:10:16;3.63;;;1.40;;
22829;SDS011;11581;51.250;6.778;2023-04-26T15:12:43;3.75;;;1.58;;
22829;SDS011;11581;51.250;6.778;2023-04-26T15:15:10;4.25;;;1.70;;
22829;SDS011;11581;51.250;6.778;2023-04-26T15:17:36;3.83;;;1.73;;
22829;SDS011;11581;51.250;6.778;2023-04-26T15:20:03;2.95;;;1.63;;
22829;SDS011;11581;51.250;6.778;2023-04-26T15:22:31;3.45;;;1.48;;
22829;SDS011;11581;51.250;6.778;2023-04-26T15:24:58;3.55;;;1.50;;
22829;SDS011;11581;51.250;6.778;2023-04-26T15:27:25;4.07;;;1.63;;
22829;SDS011;11581;51.250;6.778;2023-04-26T15:29:52;4.55;;;1.77;;